Time;durP1;ratioP1;P1;durP2;ratioP2;P2;SDS_P1;SDS_P2;PMS_P1;PMS_P2;Temp;Humidity;BMP_temperature;BMP_pressure;BME280_temperature;BME280_humidity;BME280_pressure;Samples;Min_cycle;Max_cycle;Signal;HPM_P1;HPM_P2
2023/04/16 00:00:02;;;;;;;5.80;4.10;;;;;;;9.01;82.82;100388.45;103547;280;38511;-69
2023/04/16 00:02:59;;;;;;;4.70;4.20;;;;;;;9.03;82.72;100396.23;103655;280;38586;-70
2023/04/16 00:05:33;;;;;;;6.50;4.30;;;;;;;9.02;82.66;100391.02;103610;280;39301;-69
2023/04/16 00:08:10;;;;;;;4.60;4.10;;;;;;;9.01;82.74;100391.75;103592;280;39719;-68
2023/04/16 00:10:44;;;;;;;4.00;3.60;;;;;;;8.98;82.67;100393.58;103579;280;40068;-73
2023/04/16 00:13:18;;;;;;;3.60;3.00;;;;;;;8.98;82.84;100393.61;103602;280;38509;-70
2023/04/16 00:15:52;;;;;;;5.10;4.00;;;;;;;8.98;82.81;100395.70;103634;280;38403;-70
2023/04/16 00:18:26;;;;;;;5.40;4.00;;;;;;;8.96;82.93;100390.86;103646;280;38851;-70
2023/04/16 00:21:00;;;;;;;4.20;3.80;;;;;;;8.95;83.14;100392.64;103607;280;38457;-69
2023/04/16 00:23:34;;;;;;;4.90;4.20;;;;;;;8.93;83.24;100389.94;103621;280;39399;-68
2023/04/16 00:26:10;;;;;;;4.00;3.60;;;;;;;8.88;83.20;100396.87;103642;280;38859;-69
2023/04/16 00:28:51;;;;;;;3.90;3.20;;;;;;;8.88;83.48;100397.73;103627;280;38249;-70
2023/04/16 00:31:31;;;;;;;5.50;3.90;;;;;;;8.90;83.60;100396.80;103606;280;39881;-70
2023/04/16 00:34:05;;;;;;;6.00;3.90;;;;;;;8.84;83.73;100397.52;103600;280;38575;-72
2023/04/16 00:36:39;;;;;;;4.30;3.50;;;;;;;8.83;83.75;100394.59;103636;280;39431;-70
2023/04/16 00:39:13;;;;;;;4.10;3.60;;;;;;;8.87;83.88;100398.83;103573;280;39686;-69
2023/04/16 00:41:48;;;;;;;4.40;3.80;;;;;;;8.90;84.00;100396.96;103634;280;39676;-69
2023/04/16 00:44:21;;;;;;;4.20;3.70;;;;;;;8.91;84.06;100400.06;103568;280;38861;-70
2023/04/16 00:46:55;;;;;;;5.30;4.10;;;;;;;8.88;84.14;100402.62;103635;280;38994;-70
2023/04/16 00:49:29;;;;;;;4.70;3.90;;;;;;;8.85;84.08;100399.75;103622;280;38559;-70
2023/04/16 00:52:03;;;;;;;6.60;4.20;;;;;;;8.86;84.23;100398.34;103655;280;38397;-71
2023/04/16 00:54:37;;;;;;;4.50;3.10;;;;;;;8.86;84.50;100400.42;103633;280;38447;-70
2023/04/16 00:57:11;;;;;;;4.00;3.60;;;;;;;8.80;84.40;100402.69;103689;280;38736;-70
2023/04/16 00:59:44;;;;;;;3.80;3.40;;;;;;;8.74;84.69;100405.28;103627;280;39821;-71
2023/04/16 01:02:18;;;;;;;4.40;4.00;;;;;;;8.74;84.72;100404.77;103627;280;39648;-67
2023/04/16 01:04:58;;;;;;;5.70;3.50;;;;;;;8.71;85.03;100403.83;103612;280;39420;-68
2023/04/16 01:07:32;;;;;;;5.00;4.10;;;;;;;8.66;85.19;100405.20;103593;280;38489;-68
2023/04/16 01:10:10;;;;;;;4.20;3.00;;;;;;;8.65;85.22;100407.80;103592;280;38761;-68
2023/04/16 01:12:44;;;;;;;4.10;3.20;;;;;;;8.68;85.25;100408.94;103641;280;39467;-72
2023/04/16 01:15:18;;;;;;;4.90;3.90;;;;;;;8.69;85.60;100408.91;103630;280;38542;-70
2023/04/16 01:17:52;;;;;;;5.40;3.70;;;;;;;8.66;85.63;100407.79;103665;280;39346;-71
2023/04/16 01:20:26;;;;;;;5.20;3.80;;;;;;;8.64;85.51;100402.81;103702;280;38287;-71
2023/04/16 01:23:00;;;;;;;4.10;3.20;;;;;;;8.63;85.47;100404.41;103516;281;38492;-70
2023/04/16 01:25:34;;;;;;;4.90;3.10;;;;;;;8.65;85.64;100403.13;103585;280;38514;-72
2023/04/16 01:28:08;;;;;;;3.90;3.50;;;;;;;8.70;85.89;100403.67;103617;280;38287;-72
2023/04/16 01:30:42;;;;;;;3.90;3.40;;;;;;;8.68;85.73;100401.98;103663;280;39694;-70
2023/04/16 01:33:16;;;;;;;5.10;4.20;;;;;;;8.72;85.77;100404.67;103596;280;38449;-71
2023/04/16 01:35:55;;;;;;;4.50;4.00;;;;;;;8.71;85.85;100402.75;103152;280;605421;-69
2023/04/16 01:38:39;;;;;;;4.60;4.00;;;;;;;8.68;85.64;100404.23;103570;280;38222;-67
2023/04/16 01:41:15;;;;;;;4.30;3.80;;;;;;;8.65;85.69;100406.05;103644;280;38647;-72
2023/04/16 01:43:49;;;;;;;4.40;3.40;;;;;;;8.67;85.82;100405.67;103627;280;39626;-72
2023/04/16 01:46:27;;;;;;;4.50;3.90;;;;;;;8.68;85.76;100403.55;103585;280;38250;-69
2023/04/16 01:49:07;;;;;;;4.50;4.00;;;;;;;8.72;85.78;100404.15;103588;280;38523;-67
2023/04/16 01:51:43;;;;;;;5.10;4.00;;;;;;;8.73;85.77;100403.92;103620;280;39376;-70
2023/04/16 01:54:17;;;;;;;3.60;3.30;;;;;;;8.73;85.68;100403.06;103640;280;39673;-73
2023/04/16 01:56:51;;;;;;;4.50;3.30;;;;;;;8.70;85.56;100406.45;103664;280;38749;-71
2023/04/16 01:59:25;;;;;;;4.40;3.70;;;;;;;8.68;85.56;100408.78;103645;280;39424;-71
2023/04/16 02:01:59;;;;;;;4.70;3.70;;;;;;;8.67;85.69;100404.98;103654;280;38925;-70
2023/04/16 02:04:32;;;;;;;4.40;3.90;;;;;;;8.64;85.74;100404.72;103648;280;38409;-70
2023/04/16 02:07:06;;;;;;;4.50;3.50;;;;;;;8.58;85.75;100410.98;103655;280;38478;-70
2023/04/16 02:09:40;;;;;;;3.50;3.10;;;;;;;8.56;85.79;100411.73;103670;280;38632;-72
2023/04/16 02:12:14;;;;;;;3.60;3.00;;;;;;;8.55;86.07;100411.59;103706;280;38549;-69
2023/04/16 02:14:48;;;;;;;5.00;3.40;;;;;;;8.55;86.00;100417.69;103671;280;38992;-70
2023/04/16 02:17:22;;;;;;;3.90;3.40;;;;;;;8.56;86.04;100421.48;103672;280;38410;-72
2023/04/16 02:19:56;;;;;;;5.00;4.10;;;;;;;8.57;86.05;100420.75;103644;280;39828;-72
2023/04/16 02:22:30;;;;;;;4.30;3.60;;;;;;;8.55;86.17;100422.19;103685;280;39429;-69
2023/04/16 02:25:09;;;;;;;3.80;3.40;;;;;;;8.53;86.09;100427.63;103717;280;39636;-69
2023/04/16 02:27:45;;;;;;;4.40;3.20;;;;;;;8.52;86.08;100425.93;103749;280;39660;-71
2023/04/16 02:30:20;;;;;;;5.40;3.50;;;;;;;8.53;86.21;100426.24;103537;280;39631;-71
2023/04/16 02:32:54;;;;;;;4.30;3.60;;;;;;;8.54;86.21;100425.52;103686;279;39594;-71
2023/04/16 02:35:27;;;;;;;4.20;3.80;;;;;;;8.53;86.12;100426.95;103711;280;38264;-70
2023/04/16 02:38:04;;;;;;;4.10;3.70;;;;;;;8.53;86.12;100426.77;103653;280;38966;-70
2023/04/16 02:40:47;;;;;;;4.30;3.40;;;;;;;8.53;86.17;100427.29;103669;280;38631;-69
2023/04/16 02:43:27;;;;;;;4.60;3.40;;;;;;;8.53;86.12;100430.23;103694;280;39401;-67
2023/04/16 02:46:08;;;;;;;5.80;3.70;;;;;;;8.52;86.21;100436.02;103696;280;38796;-68
2023/04/16 02:48:51;;;;;;;4.70;3.80;;;;;;;8.47;86.31;100439.81;103662;280;38359;-67
2023/04/16 02:51:26;;;;;;;4.90;3.90;;;;;;;8.44;86.39;100441.11;103676;280;38835;-69
2023/04/16 02:54:04;;;;;;;4.00;3.60;;;;;;;8.44;86.37;100445.98;103655;280;38364;-67
2023/04/16 02:56:45;;;;;;;4.10;3.80;;;;;;;8.45;86.43;100451.52;103691;280;38603;-69
2023/04/16 02:59:27;;;;;;;4.40;4.00;;;;;;;8.46;86.50;100450.79;103665;280;38497;-69
2023/04/16 03:02:02;;;;;;;4.10;3.40;;;;;;;8.41;86.40;100457.71;103692;280;38833;-71
2023/04/16 03:04:37;;;;;;;4.40;4.00;;;;;;;8.41;86.47;100458.58;103680;280;38403;-71
2023/04/16 03:07:11;;;;;;;6.10;3.70;;;;;;;8.42;86.48;100465.50;103737;280;38509;-71
2023/04/16 03:09:45;;;;;;;4.80;3.80;;;;;;;8.46;86.54;100464.85;103738;280;38686;-71
2023/04/16 03:12:19;;;;;;;5.90;4.10;;;;;;;8.48;86.50;100468.64;103747;280;38551;-70
2023/04/16 03:14:54;;;;;;;4.50;4.10;;;;;;;8.48;86.54;100469.52;103640;280;38639;-68
2023/04/16 03:17:29;;;;;;;5.00;4.20;;;;;;;8.47;86.46;100473.19;103691;280;38688;-70
2023/04/16 03:20:03;;;;;;;4.30;3.90;;;;;;;8.51;86.54;100472.00;103718;280;39955;-70
2023/04/16 03:22:39;;;;;;;5.40;4.90;;;;;;;8.54;86.49;100466.92;103699;280;38679;-71
2023/04/16 03:25:13;;;;;;;5.20;4.80;;;;;;;8.53;86.25;100467.80;103668;280;38506;-73
2023/04/16 03:27:49;;;;;;;6.10;5.50;;;;;;;8.54;86.31;100472.29;103727;280;38266;-68
2023/04/16 03:30:24;;;;;;;5.60;4.90;;;;;;;8.55;86.31;100471.59;103543;281;38723;-72
2023/04/16 03:33:01;;;;;;;5.80;5.20;;;;;;;8.55;86.33;100472.95;103651;280;40569;-69
2023/04/16 03:35:35;;;;;;;7.30;5.90;;;;;;;8.52;86.13;100468.35;103724;280;39482;-70
2023/04/16 03:38:12;;;;;;;7.10;6.50;;;;;;;8.50;86.08;100472.07;103690;278;38821;-71
2023/04/16 03:40:49;;;;;;;7.90;7.10;;;;;;;8.47;86.10;100469.55;103753;280;38421;-71
2023/04/16 03:43:23;;;;;;;7.30;6.60;;;;;;;8.46;86.18;100471.84;103674;280;39695;-70
2023/04/16 03:45:57;;;;;;;7.10;6.40;;;;;;;8.46;86.07;100473.55;103070;280;909135;-68
2023/04/16 03:48:32;;;;;;;7.10;6.40;;;;;;;8.49;86.12;100476.10;103707;280;39720;-68
2023/04/16 03:51:07;;;;;;;8.10;6.90;;;;;;;8.47;86.06;100479.09;103713;279;39717;-71
2023/04/16 03:53:41;;;;;;;7.50;6.80;;;;;;;8.50;86.15;100480.23;103761;280;38528;-71
2023/04/16 03:56:15;;;;;;;9.20;7.50;;;;;;;8.51;86.13;100483.50;103732;280;38500;-68
2023/04/16 03:58:52;;;;;;;8.40;7.60;;;;;;;8.49;86.03;100485.47;103707;272;39696;-67
2023/04/16 04:01:31;;;;;;;7.30;6.60;;;;;;;8.48;85.96;100487.61;103685;280;38544;-69
2023/04/16 04:04:05;;;;;;;7.30;6.60;;;;;;;8.50;86.08;100486.85;103705;280;38376;-68
2023/04/16 04:06:39;;;;;;;8.20;7.40;;;;;;;8.51;86.20;100486.64;103680;280;38719;-71
2023/04/16 04:09:15;;;;;;;8.60;7.30;;;;;;;8.52;86.18;100487.64;103720;280;38320;-70
2023/04/16 04:11:49;;;;;;;8.40;7.50;;;;;;;8.51;86.16;100490.98;103680;280;38478;-72
2023/04/16 04:14:23;;;;;;;8.20;7.40;;;;;;;8.50;86.03;100490.84;103684;280;39838;-70
2023/04/16 04:17:02;;;;;;;7.80;6.80;;;;;;;8.49;85.93;100493.31;103659;280;39668;-69
2023/04/16 04:19:41;;;;;;;8.70;7.90;;;;;;;8.49;86.01;100495.38;103706;280;39611;-70
2023/04/16 04:22:16;;;;;;;8.70;7.90;;;;;;;8.52;86.13;100493.38;103731;280;39949;-71
2023/04/16 04:24:53;;;;;;;9.90;8.80;;;;;;;8.58;86.23;100498.65;103681;280;38228;-72
2023/04/16 04:27:27;;;;;;;9.10;8.00;;;;;;;8.61;86.18;100499.05;103729;280;39570;-70
2023/04/16 04:30:03;;;;;;;7.70;6.90;;;;;;;8.62;85.90;100499.90;103691;280;38230;-70
2023/04/16 04:32:40;;;;;;;8.40;6.90;;;;;;;8.63;85.82;100500.90;103697;280;39005;-69
2023/04/16 04:35:16;;;;;;;7.60;6.90;;;;;;;8.60;85.65;100502.21;103667;280;38259;-70
2023/04/16 04:37:51;;;;;;;8.10;7.20;;;;;;;8.60;85.70;100506.71;103704;280;38915;-72
2023/04/16 04:40:25;;;;;;;8.60;7.80;;;;;;;8.62;85.71;100511.20;103739;280;38702;-71
2023/04/16 04:42:59;;;;;;;8.90;8.00;;;;;;;8.62;85.75;100511.71;103681;280;39437;-70
2023/04/16 04:45:33;;;;;;;9.60;8.70;;;;;;;8.62;85.73;100515.20;103681;280;39687;-72
2023/04/16 04:48:07;;;;;;;9.60;8.60;;;;;;;8.60;85.58;100517.02;103695;280;38452;-72
2023/04/16 04:50:42;;;;;;;7.90;7.20;;;;;;;8.61;85.63;100513.66;103691;279;38674;-73
2023/04/16 04:53:19;;;;;;;6.60;6.00;;;;;;;8.68;85.83;100521.13;103677;280;38915;-72
2023/04/16 04:55:55;;;;;;;7.80;7.10;;;;;;;8.75;85.89;100523.89;103720;280;38383;-68
2023/04/16 04:58:31;;;;;;;8.70;7.90;;;;;;;8.78;85.64;100523.98;103700;280;38789;-72
2023/04/16 05:01:07;;;;;;;8.20;7.50;;;;;;;8.86;85.87;100520.62;103722;268;39212;-72
2023/04/16 05:03:42;;;;;;;8.10;7.30;;;;;;;8.97;85.82;100522.03;103701;280;39012;-71
2023/04/16 05:06:16;;;;;;;8.20;7.40;;;;;;;9.02;85.21;100528.15;103735;272;39908;-72
2023/04/16 05:08:50;;;;;;;8.70;7.90;;;;;;;9.05;85.03;100525.27;103080;280;907120;-72
2023/04/16 05:11:25;;;;;;;9.20;8.20;;;;;;;9.10;85.01;100532.25;103704;280;38779;-72
2023/04/16 05:13:59;;;;;;;9.40;8.40;;;;;;;9.12;84.55;100534.31;103690;280;38690;-72
2023/04/16 05:16:34;;;;;;;8.00;7.20;;;;;;;9.10;84.48;100534.70;103718;280;39867;-70
2023/04/16 05:19:08;;;;;;;8.40;7.60;;;;;;;9.15;84.47;100538.73;103683;280;38826;-70
2023/04/16 05:21:42;;;;;;;8.40;7.60;;;;;;;9.21;84.39;100537.52;103709;280;38535;-70
2023/04/16 05:24:16;;;;;;;7.80;7.10;;;;;;;9.24;84.24;100540.40;103685;280;38522;-71
2023/04/16 05:26:50;;;;;;;8.30;7.50;;;;;;;9.27;84.26;100539.08;103599;280;175426;-72
2023/04/16 05:29:24;;;;;;;8.40;7.60;;;;;;;9.28;84.01;100540.60;103552;280;175385;-71
2023/04/16 05:32:01;;;;;;;7.90;7.20;;;;;;;9.30;83.77;100542.13;103709;280;39654;-69
2023/04/16 05:34:37;;;;;;;7.10;6.40;;;;;;;9.31;83.65;100542.98;103712;280;39859;-69
2023/04/16 05:37:14;;;;;;;7.80;7.00;;;;;;;9.32;83.63;100546.77;103716;279;38953;-72
2023/04/16 05:39:48;;;;;;;8.00;7.30;;;;;;;9.37;83.59;100550.11;103596;280;189258;-72
2023/04/16 05:42:22;;;;;;;9.80;8.90;;;;;;;9.33;83.12;100547.27;103744;280;38398;-70
2023/04/16 05:44:56;;;;;;;8.30;7.50;;;;;;;9.30;83.10;100554.12;103698;279;39432;-70
2023/04/16 05:47:29;;;;;;;8.20;7.40;;;;;;;9.30;83.10;100556.23;103544;280;175362;-70
2023/04/16 05:50:03;;;;;;;7.90;7.20;;;;;;;9.27;82.77;100556.98;103667;280;38497;-68
2023/04/16 05:52:37;;;;;;;8.30;7.50;;;;;;;9.28;83.11;100551.22;103687;280;38427;-72
2023/04/16 05:55:12;;;;;;;8.50;7.70;;;;;;;9.31;82.91;100556.38;103715;280;39694;-72
2023/04/16 05:57:45;;;;;;;8.80;8.00;;;;;;;9.29;82.88;100556.08;103695;280;38995;-71
2023/04/16 06:00:21;;;;;;;9.00;8.10;;;;;;;9.29;82.88;100563.21;103544;280;175377;-71
2023/04/16 06:02:55;;;;;;;8.50;7.70;;;;;;;9.30;82.88;100568.05;103707;280;38381;-71
2023/04/16 06:05:30;;;;;;;9.00;7.90;;;;;;;9.33;82.73;100569.89;103695;280;39769;-70
2023/04/16 06:08:04;;;;;;;8.20;7.50;;;;;;;9.36;82.73;100576.24;103685;280;38813;-71
2023/04/16 06:10:37;;;;;;;9.40;8.50;;;;;;;9.40;82.61;100576.81;103712;280;39664;-70
2023/04/16 06:13:11;;;;;;;9.10;8.20;;;;;;;9.38;82.12;100574.97;103690;280;39392;-72
2023/04/16 06:15:45;;;;;;;10.00;7.60;;;;;;;9.38;82.19;100575.15;103724;280;39085;-70
2023/04/16 06:18:19;;;;;;;8.60;7.20;;;;;;;9.40;82.28;100579.77;103685;280;38715;-72
2023/04/16 06:20:53;;;;;;;8.50;7.70;;;;;;;9.46;82.08;100580.30;103729;280;38422;-72
2023/04/16 06:23:27;;;;;;;8.70;7.70;;;;;;;9.51;82.14;100584.85;103527;281;40190;-72
2023/04/16 06:26:01;;;;;;;8.90;8.10;;;;;;;9.55;82.00;100584.36;103743;280;38794;-73
2023/04/16 06:28:35;;;;;;;8.30;7.50;;;;;;;9.59;81.68;100588.80;103658;280;39425;-73
2023/04/16 06:31:09;;;;;;;8.30;7.50;;;;;;;9.63;81.44;100588.67;103703;280;38490;-70
2023/04/16 06:33:43;;;;;;;7.30;6.70;;;;;;;9.69;81.33;100586.39;103692;279;38940;-72
2023/04/16 06:36:17;;;;;;;8.60;7.70;;;;;;;9.77;81.33;100588.91;103745;280;38273;-69
2023/04/16 06:38:51;;;;;;;8.10;7.40;;;;;;;9.82;80.99;100589.98;103650;280;39448;-69
2023/04/16 06:41:25;;;;;;;8.70;7.90;;;;;;;9.85;80.71;100587.44;103713;280;39733;-70
2023/04/16 06:43:59;;;;;;;8.70;7.90;;;;;;;9.89;80.56;100592.02;103546;280;40260;-70
2023/04/16 06:46:33;;;;;;;8.20;7.50;;;;;;;9.91;80.31;100592.84;103734;280;40044;-70
2023/04/16 06:49:06;;;;;;;8.90;7.70;;;;;;;9.93;80.12;100592.79;103707;280;38305;-70
2023/04/16 06:51:40;;;;;;;8.40;7.60;;;;;;;9.93;79.72;100592.09;103710;280;39460;-72
2023/04/16 06:54:14;;;;;;;8.80;8.00;;;;;;;9.90;79.50;100592.00;103587;280;175407;-71
2023/04/16 06:56:48;;;;;;;8.10;7.30;;;;;;;9.86;79.38;100595.10;103706;280;38509;-69
2023/04/16 06:59:22;;;;;;;8.30;7.50;;;;;;;9.82;79.63;100597.13;103699;280;38893;-70
2023/04/16 07:01:56;;;;;;;8.60;7.50;;;;;;;9.84;79.85;100594.80;103620;280;175027;-68
2023/04/16 07:04:33;;;;;;;8.60;7.70;;;;;;;9.91;79.75;100599.47;103665;280;39384;-68
2023/04/16 07:07:07;;;;;;;8.20;7.50;;;;;;;9.95;79.54;100595.84;103720;280;39661;-71
2023/04/16 07:09:41;;;;;;;9.00;8.10;;;;;;;9.96;79.40;100594.95;103688;268;38694;-73
2023/04/16 07:12:15;;;;;;;9.50;8.50;;;;;;;9.99;79.37;100601.96;103739;280;38348;-70
2023/04/16 07:14:49;;;;;;;8.80;8.00;;;;;;;10.02;79.38;100601.36;103692;280;38263;-68
2023/04/16 07:17:23;;;;;;;8.00;7.30;;;;;;;10.06;79.18;100604.21;103744;280;38659;-73
2023/04/16 07:19:57;;;;;;;8.50;7.80;;;;;;;10.10;78.64;100607.58;103729;269;38401;-71
2023/04/16 07:22:31;;;;;;;8.60;7.90;;;;;;;10.10;78.01;100609.83;103676;280;38842;-69
2023/04/16 07:25:05;;;;;;;9.30;8.50;;;;;;;10.03;78.02;100613.21;103663;280;39834;-68
2023/04/16 07:27:39;;;;;;;8.80;7.90;;;;;;;10.04;78.44;100615.08;103733;280;39922;-72
2023/04/16 07:30:14;;;;;;;8.30;7.50;;;;;;;10.08;78.30;100621.05;103723;280;39975;-72
2023/04/16 07:32:48;;;;;;;8.60;7.90;;;;;;;10.06;78.07;100623.38;103703;280;38244;-69
2023/04/16 07:35:23;;;;;;;8.70;7.80;;;;;;;10.04;77.91;100630.05;103660;280;39854;-70
2023/04/16 07:37:57;;;;;;;9.00;8.20;;;;;;;10.08;78.39;100631.69;103089;279;904874;-72
2023/04/16 07:40:31;;;;;;;8.50;7.50;;;;;;;10.15;78.50;100633.58;103752;280;38673;-68
2023/04/16 07:43:05;;;;;;;8.80;8.00;;;;;;;10.19;78.16;100640.20;103668;280;38597;-69
2023/04/16 07:45:39;;;;;;;9.70;8.90;;;;;;;10.21;77.88;100643.64;103715;280;38548;-71
2023/04/16 07:48:18;;;;;;;9.50;8.60;;;;;;;10.18;77.49;100641.13;103729;280;39465;-71
2023/04/16 07:50:53;;;;;;;9.00;8.00;;;;;;;10.14;77.25;100642.64;103754;328;38283;-70
2023/04/16 07:53:27;;;;;;;8.00;7.30;;;;;;;10.16;77.31;100642.95;103703;279;39490;-72
2023/04/16 07:56:01;;;;;;;9.60;8.70;;;;;;;10.19;77.57;100644.58;103751;280;39759;-70
2023/04/16 07:58:34;;;;;;;9.30;8.50;;;;;;;10.23;77.29;100650.39;103685;280;39660;-71
2023/04/16 08:01:09;;;;;;;9.50;8.70;;;;;;;10.23;76.65;100654.59;103745;280;39573;-69
2023/04/16 08:03:44;;;;;;;8.30;7.60;;;;;;;10.18;76.59;100651.06;103681;280;38260;-68
2023/04/16 08:06:18;;;;;;;8.20;7.50;;;;;;;10.17;76.57;100654.42;103683;280;38778;-73
2023/04/16 08:08:52;;;;;;;7.60;6.90;;;;;;;10.16;76.29;100656.02;103699;280;38448;-73
2023/04/16 08:11:30;;;;;;;8.30;7.50;;;;;;;10.15;76.18;100659.00;103712;279;38762;-68
2023/04/16 08:14:11;;;;;;;7.80;7.10;;;;;;;10.19;76.38;100660.81;103669;280;38550;-69
2023/04/16 08:16:46;;;;;;;8.40;7.60;;;;;;;10.21;75.92;100671.73;103696;280;38888;-72
2023/04/16 08:19:20;;;;;;;8.70;8.00;;;;;;;10.17;75.71;100673.77;103708;280;38480;-73
2023/04/16 08:21:55;;;;;;;8.20;7.40;;;;;;;10.17;75.98;100671.15;103765;280;39104;-70
2023/04/16 08:24:29;;;;;;;7.70;7.00;;;;;;;10.19;76.05;100674.56;103722;280;38252;-70
2023/04/16 08:27:03;;;;;;;7.80;7.10;;;;;;;10.26;76.08;100675.77;103664;280;40273;-70
2023/04/16 08:29:37;;;;;;;8.10;7.40;;;;;;;10.28;75.93;100678.67;103661;280;38698;-70
2023/04/16 08:32:11;;;;;;;7.80;7.00;;;;;;;10.34;75.60;100680.59;103677;280;40074;-74
2023/04/16 08:34:45;;;;;;;8.60;7.70;;;;;;;10.36;75.62;100680.52;103655;280;39511;-70
2023/04/16 08:37:19;;;;;;;8.50;7.70;;;;;;;10.41;75.42;100682.13;103729;280;38255;-72
2023/04/16 08:39:53;;;;;;;8.10;7.40;;;;;;;10.42;75.23;100685.56;103684;280;38461;-72
2023/04/16 08:42:30;;;;;;;7.90;7.10;;;;;;;10.43;75.09;100685.86;103716;279;38743;-73
2023/04/16 08:45:09;;;;;;;8.50;7.70;;;;;;;10.44;75.12;100685.14;103717;280;38418;-73
2023/04/16 08:47:44;;;;;;;9.50;8.60;;;;;;;10.47;75.22;100686.96;103744;280;38341;-73
2023/04/16 08:50:26;;;;;;;10.00;9.00;;;;;;;10.54;75.27;100690.73;103682;280;39487;-70
2023/04/16 08:53:03;;;;;;;10.20;9.30;;;;;;;10.61;75.19;100692.63;103675;280;39381;-68
2023/04/16 08:55:41;;;;;;;10.60;9.70;;;;;;;10.67;75.05;100698.16;103709;280;38458;-70
2023/04/16 08:58:18;;;;;;;10.40;9.50;;;;;;;10.70;75.00;100696.67;103675;280;38497;-69
2023/04/16 09:00:52;;;;;;;9.30;8.40;;;;;;;10.76;75.11;100697.35;103689;280;38791;-71
2023/04/16 09:03:26;;;;;;;9.40;8.60;;;;;;;10.83;74.96;100696.94;103706;280;38433;-71
2023/04/16 09:06:01;;;;;;;9.60;8.70;;;;;;;10.90;74.65;100699.16;103711;280;39456;-70
2023/04/16 09:08:36;;;;;;;9.70;8.80;;;;;;;10.91;74.14;100701.02;103689;280;39420;-69
2023/04/16 09:11:11;;;;;;;10.20;9.30;;;;;;;10.98;74.61;100697.64;103716;280;39869;-72
2023/04/16 09:13:44;;;;;;;9.80;9.00;;;;;;;11.05;74.31;100696.02;103667;280;38516;-75
2023/04/16 09:16:18;;;;;;;10.50;9.60;;;;;;;11.07;74.08;100700.80;103726;280;38481;-69
2023/04/16 09:18:54;;;;;;;9.10;8.30;;;;;;;11.12;74.14;100700.99;103650;280;39959;-70
2023/04/16 09:21:28;;;;;;;9.50;8.70;;;;;;;11.18;73.88;100702.02;103678;280;38246;-67
2023/04/16 09:24:03;;;;;;;9.50;8.60;;;;;;;11.26;73.91;100702.23;103678;280;38700;-68
2023/04/16 09:26:37;;;;;;;8.70;7.90;;;;;;;11.36;73.23;100704.30;103703;280;40600;-71
2023/04/16 09:29:11;;;;;;;9.10;8.20;;;;;;;11.42;73.27;100703.26;103691;280;38511;-72
2023/04/16 09:31:46;;;;;;;9.20;8.30;;;;;;;11.49;73.09;100701.77;103733;280;38663;-71
2023/04/16 09:34:31;;;;;;;9.90;8.90;;;;;;;11.54;72.56;100702.64;103675;280;39647;-73
2023/04/16 09:37:18;;;;;;;10.30;9.30;;;;;;;11.60;72.66;100706.80;103275;280;39035;-73
2023/04/16 09:39:58;;;;;;;10.20;9.20;;;;;;;11.67;72.68;100714.93;103709;280;38605;-72
2023/04/16 09:42:33;;;;;;;9.90;9.00;;;;;;;11.72;72.17;100715.95;103712;280;38273;-71
2023/04/16 09:45:08;;;;;;;10.50;8.50;;;;;;;11.73;71.89;100719.23;103686;280;38535;-71
2023/04/16 09:47:46;;;;;;;8.80;7.90;;;;;;;11.75;71.95;100723.15;103715;280;38731;-71
2023/04/16 09:50:23;;;;;;;9.70;8.20;;;;;;;11.81;72.02;100724.52;103649;280;38266;-73
2023/04/16 09:52:57;;;;;;;9.30;8.40;;;;;;;11.88;71.62;100723.25;103716;280;38509;-73
2023/04/16 09:55:32;;;;;;;10.10;9.00;;;;;;;11.97;72.10;100721.33;103701;280;38500;-70
2023/04/16 09:58:06;;;;;;;9.00;8.10;;;;;;;12.07;71.70;100724.27;103705;280;38259;-70
2023/04/16 10:00:41;;;;;;;9.30;8.40;;;;;;;12.08;71.27;100724.59;103459;280;175259;-70
2023/04/16 10:03:16;;;;;;;8.60;7.70;;;;;;;12.09;71.32;100727.50;103658;280;37876;-69
2023/04/16 10:05:50;;;;;;;8.60;7.80;;;;;;;12.12;71.05;100726.52;103701;280;39968;-70
2023/04/16 10:08:24;;;;;;;8.80;8.00;;;;;;;12.12;70.88;100727.77;103714;280;38480;-69
2023/04/16 10:10:58;;;;;;;9.10;8.30;;;;;;;12.13;71.07;100731.05;103712;280;38298;-70
2023/04/16 10:13:32;;;;;;;8.80;7.40;;;;;;;12.20;71.18;100733.23;103690;280;37356;-68
2023/04/16 10:16:09;;;;;;;7.70;7.10;;;;;;;12.28;70.76;100732.90;103667;280;38530;-68
2023/04/16 10:18:45;;;;;;;7.40;6.80;;;;;;;12.37;70.18;100730.45;103660;280;38485;-68
2023/04/16 10:21:19;;;;;;;7.80;7.10;;;;;;;12.41;69.45;100735.70;103721;280;38756;-69
2023/04/16 10:23:53;;;;;;;8.00;7.30;;;;;;;12.42;69.18;100733.41;103694;280;38240;-71
2023/04/16 10:26:27;;;;;;;8.10;7.40;;;;;;;12.44;69.23;100736.30;103707;280;38739;-70
2023/04/16 10:29:02;;;;;;;8.60;7.80;;;;;;;12.50;69.49;100739.88;103711;280;38271;-68
2023/04/16 10:31:36;;;;;;;7.80;7.20;;;;;;;12.55;69.32;100742.86;103736;280;39507;-74
2023/04/16 10:34:11;;;;;;;8.30;7.60;;;;;;;12.60;69.39;100746.30;103575;279;175240;-71
2023/04/16 10:36:46;;;;;;;8.70;7.90;;;;;;;12.67;69.09;100749.90;103697;280;39576;-73
2023/04/16 10:39:22;;;;;;;9.10;8.20;;;;;;;12.72;68.57;100751.63;103679;280;39961;-73
2023/04/16 10:42:10;;;;;;;9.50;8.60;;;;;;;12.75;68.63;100756.73;103740;280;38535;-71
2023/04/16 10:44:44;;;;;;;8.70;7.90;;;;;;;12.80;68.39;100757.05;103675;280;38277;-71
2023/04/16 10:47:18;;;;;;;9.70;8.10;;;;;;;12.88;68.66;100758.80;103706;279;38634;-71
2023/04/16 10:49:53;;;;;;;9.40;8.50;;;;;;;13.00;68.27;100764.80;103699;280;39763;-72
2023/04/16 10:52:27;;;;;;;7.80;7.10;;;;;;;13.06;66.79;100764.90;103682;280;39846;-72
2023/04/16 10:55:01;;;;;;;8.60;7.80;;;;;;;13.07;66.98;100764.89;103679;280;38495;-71
2023/04/16 10:57:35;;;;;;;8.20;7.50;;;;;;;13.14;67.15;100760.20;103668;280;38937;-71
2023/04/16 11:00:24;;;;;;;8.50;7.70;;;;;;;13.20;66.67;100762.05;103719;280;38300;-70
2023/04/16 11:03:00;;;;;;;9.20;8.30;;;;;;;13.27;66.55;100765.66;103597;280;175214;-69
2023/04/16 11:05:48;;;;;;;8.70;7.80;;;;;;;13.34;66.11;100763.20;103706;280;39011;-71
2023/04/16 11:08:22;;;;;;;8.80;7.90;;;;;;;13.47;66.02;100759.84;103703;280;39386;-72
2023/04/16 11:10:57;;;;;;;8.90;8.00;;;;;;;13.60;65.78;100759.45;103583;280;38285;-71
2023/04/16 11:13:30;;;;;;;10.90;7.60;;;;;;;13.80;65.82;100756.62;103662;280;39417;-68
2023/04/16 11:16:05;;;;;;;9.50;8.40;;;;;;;13.98;64.88;100754.95;103700;280;39491;-68
2023/04/16 11:18:40;;;;;;;9.20;8.30;;;;;;;14.11;65.36;100754.86;103716;280;39398;-71
2023/04/16 11:21:15;;;;;;;7.60;6.80;;;;;;;14.36;65.17;100761.41;103744;280;38464;-70
2023/04/16 11:23:53;;;;;;;7.60;6.90;;;;;;;14.47;63.71;100761.59;103705;280;38463;-73
2023/04/16 11:26:32;;;;;;;7.50;6.90;;;;;;;14.58;64.07;100757.94;103605;280;39451;-71
2023/04/16 11:29:15;;;;;;;7.90;7.20;;;;;;;14.73;63.48;100764.77;103689;268;38295;-73
2023/04/16 11:31:59;;;;;;;7.30;6.70;;;;;;;14.72;62.10;100764.45;103747;280;38224;-71
2023/04/16 11:34:33;;;;;;;7.70;7.00;;;;;;;14.73;61.98;100761.92;103698;280;38265;-71
2023/04/16 11:37:12;;;;;;;7.80;7.10;;;;;;;14.76;61.60;100759.88;103742;280;38264;-73
2023/04/16 11:39:54;;;;;;;8.10;7.30;;;;;;;14.75;61.67;100764.84;103720;280;38269;-71
2023/04/16 11:42:29;;;;;;;7.80;7.10;;;;;;;14.74;61.17;100770.66;103731;280;38500;-69
2023/04/16 11:45:03;;;;;;;7.90;7.10;;;;;;;14.74;61.65;100765.77;103706;280;38560;-69
2023/04/16 11:47:50;;;;;;;8.30;7.30;;;;;;;14.79;61.33;100765.36;103734;280;38267;-71
2023/04/16 11:50:29;;;;;;;8.30;7.60;;;;;;;14.73;60.72;100768.24;103726;280;38246;-73
2023/04/16 11:53:11;;;;;;;8.00;7.30;;;;;;;14.63;60.54;100765.42;103633;282;38262;-70
2023/04/16 11:55:48;;;;;;;8.60;7.80;;;;;;;14.57;60.71;100766.73;103756;280;39896;-71
2023/04/16 11:58:25;;;;;;;10.20;8.20;;;;;;;14.56;61.00;100765.57;103715;280;38374;-70
2023/04/16 12:01:04;;;;;;;9.60;8.70;;;;;;;14.56;61.02;100765.77;103608;280;38370;-70
2023/04/16 12:03:48;;;;;;;9.10;8.20;;;;;;;14.55;61.09;100764.06;103601;280;38395;-70
2023/04/16 12:06:35;;;;;;;9.30;8.40;;;;;;;14.50;60.33;100761.12;103736;280;38448;-69